createdAt,value
2023-05-21T00:01:48.524Z,9.80
2023-05-21T00:04:15.869Z,7.30
2023-05-21T00:06:42.798Z,7.82
2023-05-21T00:09:10.715Z,7.43
2023-05-21T00:11:37.579Z,8.80
2023-05-21T00:14:04.473Z,10.07
2023-05-21T00:16:31.365Z,8.02
2023-05-21T00:18:58.497Z,7.40
2023-05-21T00:21:26.350Z,9.70
2023-05-21T00:23:54.411Z,8.33
2023-05-21T00:26:21.773Z,9.15
2023-05-21T00:28:48.785Z,9.57
2023-05-21T00:31:17.365Z,7.75
2023-05-21T00:33:44.525Z,9.85
2023-05-21T00:36:14.542Z,9.83
2023-05-21T00:38:43.866Z,7.85
2023-05-21T00:41:11.525Z,10.77
2023-05-21T00:43:42.301Z,9.60
2023-05-21T00:46:16.738Z,7.72
2023-05-21T00:48:48.046Z,10.83
2023-05-21T00:51:16.668Z,7.65
2023-05-21T00:53:45.133Z,7.10
2023-05-21T00:56:12.353Z,9.77
2023-05-21T00:58:40.390Z,7.45
2023-05-21T01:01:07.387Z,8.20
2023-05-21T01:03:38.588Z,9.35
2023-05-21T01:06:06.609Z,9.02
2023-05-21T01:08:37.746Z,7.95
2023-05-21T01:11:06.480Z,9.50
2023-05-21T01:13:37.043Z,9.10
2023-05-21T01:16:06.789Z,6.90
2023-05-21T01:18:35.387Z,6.47
2023-05-21T01:21:02.796Z,6.28
2023-05-21T01:23:30.013Z,8.48
2023-05-21T01:25:57.034Z,7.27
2023-05-21T01:28:23.893Z,8.75
2023-05-21T01:30:51.110Z,6.82
2023-05-21T01:33:41.916Z,8.68
2023-05-21T01:36:26.873Z,8.07
2023-05-21T01:39:21.318Z,8.40
2023-05-21T01:41:51.232Z,9.23
2023-05-21T01:44:19.245Z,9.27
2023-05-21T01:46:46.506Z,8.52
2023-05-21T01:49:14.526Z,9.32
2023-05-21T01:51:41.541Z,8.33
2023-05-21T01:54:08.585Z,7.40
2023-05-21T01:56:37.053Z,8.35
2023-05-21T01:59:04.175Z,10.52
2023-05-21T02:01:31.569Z,8.43
2023-05-21T02:03:58.687Z,8.20
2023-05-21T02:06:25.882Z,11.25
2023-05-21T02:08:52.775Z,8.93
2023-05-21T02:11:20.135Z,9.50
2023-05-21T02:13:47.173Z,10.38
2023-05-21T02:16:16.029Z,8.67
2023-05-21T02:18:46.605Z,8.57
2023-05-21T02:21:13.592Z,10.07
2023-05-21T02:23:41.850Z,8.52
2023-05-21T02:26:08.844Z,9.25
2023-05-21T02:28:36.475Z,12.60
2023-05-21T02:31:04.107Z,8.05
2023-05-21T02:33:31.310Z,9.75
2023-05-21T02:35:58.782Z,8.93
2023-05-21T02:38:25.957Z,8.23
2023-05-21T02:40:53.238Z,10.47
2023-05-21T02:43:20.712Z,9.10
2023-05-21T02:45:47.976Z,10.02
2023-05-21T02:48:15.114Z,8.00
2023-05-21T02:50:42.235Z,9.02
2023-05-21T02:53:09.195Z,9.57
2023-05-21T02:55:36.350Z,9.68
2023-05-21T02:58:03.609Z,8.52
2023-05-21T03:00:30.956Z,8.52
2023-05-21T03:02:58.018Z,8.88
2023-05-21T03:05:25.027Z,8.93
2023-05-21T03:07:53.439Z,8.90
2023-05-21T03:10:20.405Z,8.90
2023-05-21T03:12:47.444Z,7.72
2023-05-21T03:15:15.087Z,8.77
2023-05-21T03:17:44.871Z,10.90
2023-05-21T03:20:18.719Z,10.90
2023-05-21T03:22:46.675Z,8.98
2023-05-21T03:25:13.691Z,8.90
2023-05-21T03:27:40.854Z,8.20
2023-05-21T03:30:08.315Z,8.47
2023-05-21T03:32:38.012Z,11.93
2023-05-21T03:35:05.967Z,7.75
2023-05-21T03:37:32.925Z,8.82
2023-05-21T03:39:59.948Z,8.00
2023-05-21T03:42:26.934Z,10.13
2023-05-21T03:44:53.929Z,9.10
2023-05-21T03:47:21.507Z,8.43
2023-05-21T03:49:48.644Z,10.63
2023-05-21T03:52:15.736Z,8.73
2023-05-21T03:54:42.810Z,8.70
2023-05-21T03:57:10.107Z,8.32
2023-05-21T03:59:37.042Z,11.43
2023-05-21T04:02:04.138Z,9.73
2023-05-21T04:04:31.015Z,12.32
2023-05-21T04:06:57.973Z,12.43
2023-05-21T04:09:25.086Z,9.20
2023-05-21T04:11:52.013Z,8.35
2023-05-21T04:14:19.040Z,8.05
2023-05-21T04:16:46.060Z,8.50
2023-05-21T04:19:13.123Z,8.17
2023-05-21T04:21:40.465Z,7.87
2023-05-21T04:24:07.791Z,10.10
2023-05-21T04:26:35.425Z,11.50
2023-05-21T04:29:05.152Z,8.88
2023-05-21T04:31:32.618Z,10.07
2023-05-21T04:33:59.617Z,11.00
2023-05-21T04:36:29.041Z,7.78
2023-05-21T04:38:56.216Z,7.72
2023-05-21T04:41:23.173Z,9.60
2023-05-21T04:43:55.184Z,8.77
2023-05-21T04:46:25.639Z,6.85
2023-05-21T04:48:55.776Z,6.47
2023-05-21T04:51:24.777Z,8.43
2023-05-21T04:53:52.086Z,12.27
2023-05-21T04:56:19.362Z,9.40
2023-05-21T04:58:48.088Z,7.43
2023-05-21T05:01:16.052Z,5.90
2023-05-21T05:03:43.140Z,8.70
2023-05-21T05:06:10.181Z,6.70
2023-05-21T05:08:37.137Z,5.43
2023-05-21T05:11:04.285Z,6.50
2023-05-21T05:13:31.409Z,6.95
2023-05-21T05:15:58.470Z,6.18
2023-05-21T05:18:25.533Z,6.20
2023-05-21T05:20:52.742Z,8.90
2023-05-21T05:23:19.686Z,6.72
2023-05-21T05:25:46.973Z,7.10
2023-05-21T05:28:13.967Z,6.40
2023-05-21T05:30:40.911Z,7.35
2023-05-21T05:33:07.958Z,6.50
2023-05-21T05:35:35.170Z,7.22
2023-05-21T05:38:02.437Z,7.50
2023-05-21T05:40:29.349Z,6.30
2023-05-21T05:42:56.368Z,7.57
2023-05-21T05:45:23.317Z,7.93
2023-05-21T05:47:50.329Z,6.45
2023-05-21T05:50:17.524Z,6.43
2023-05-21T05:52:44.450Z,5.93
2023-05-21T05:55:12.266Z,4.93
2023-05-21T05:57:39.203Z,7.10
2023-05-21T06:00:07.051Z,7.10
2023-05-21T06:02:34.107Z,6.30
2023-05-21T06:05:01.443Z,6.05
2023-05-21T06:07:28.470Z,6.28
2023-05-21T06:09:55.755Z,5.80
2023-05-21T06:12:23.138Z,5.00
2023-05-21T06:14:51.030Z,5.43
2023-05-21T06:17:18.112Z,5.57
2023-05-21T06:19:45.880Z,4.53
2023-05-21T06:22:12.854Z,7.80
2023-05-21T06:24:39.960Z,4.70
2023-05-21T06:27:07.074Z,4.75
2023-05-21T06:29:33.996Z,6.40
2023-05-21T06:32:01.780Z,3.83
2023-05-21T06:34:31.595Z,4.60
2023-05-21T06:36:58.703Z,6.28
2023-05-21T06:39:27.223Z,4.22
2023-05-21T06:41:54.557Z,5.30
2023-05-21T06:44:21.378Z,4.07
2023-05-21T06:46:48.320Z,5.73
2023-05-21T06:49:15.530Z,3.55
2023-05-21T06:51:42.556Z,4.37
2023-05-21T06:54:09.409Z,3.78
2023-05-21T06:56:36.300Z,7.78
2023-05-21T06:59:03.222Z,3.37
2023-05-21T07:01:30.862Z,4.93
2023-05-21T07:03:58.221Z,4.18
2023-05-21T07:06:25.086Z,5.03
2023-05-21T07:08:52.150Z,6.45
2023-05-21T07:11:19.197Z,5.80
2023-05-21T07:13:46.124Z,3.85
2023-05-21T07:16:13.407Z,6.75
2023-05-21T07:18:40.524Z,4.60
2023-05-21T07:21:08.815Z,4.50
2023-05-21T07:23:36.155Z,5.57
2023-05-21T07:26:03.131Z,6.75
2023-05-21T07:28:30.152Z,5.28
2023-05-21T07:30:57.719Z,5.45
2023-05-21T07:33:24.968Z,5.28
2023-05-21T07:35:52.478Z,3.43
2023-05-21T07:38:19.405Z,4.43
2023-05-21T07:40:46.362Z,4.07
2023-05-21T07:43:13.417Z,5.00
2023-05-21T07:45:40.572Z,4.93
2023-05-21T07:48:07.556Z,4.73
2023-05-21T07:50:34.498Z,6.90
2023-05-21T07:53:01.652Z,3.00
2023-05-21T07:55:28.734Z,5.07
2023-05-21T07:57:56.401Z,3.40
2023-05-21T08:00:24.437Z,3.33
2023-05-21T08:02:52.491Z,5.65
2023-05-21T08:05:21.303Z,4.53
2023-05-21T08:07:48.259Z,4.12
2023-05-21T08:10:17.093Z,2.75
2023-05-21T08:12:45.439Z,4.63
2023-05-21T08:15:12.327Z,4.82
2023-05-21T08:17:39.212Z,9.10
2023-05-21T08:20:07.145Z,4.43
2023-05-21T08:22:34.027Z,4.07
2023-05-21T08:25:01.664Z,2.93
2023-05-21T08:27:28.620Z,4.60
2023-05-21T08:29:56.048Z,4.43
2023-05-21T08:32:23.213Z,3.50
2023-05-21T08:34:50.293Z,6.18
2023-05-21T08:37:18.494Z,7.77
2023-05-21T08:39:45.425Z,3.95
2023-05-21T08:42:35.486Z,6.60
2023-05-21T08:45:06.831Z,5.40
2023-05-21T08:47:36.208Z,4.62
2023-05-21T08:50:11.003Z,8.90
2023-05-21T08:52:38.226Z,4.65
2023-05-21T08:55:06.097Z,4.30
2023-05-21T08:57:33.150Z,3.42
2023-05-21T09:00:02.012Z,4.55
2023-05-21T09:02:34.378Z,4.13
2023-05-21T09:05:03.669Z,5.00
2023-05-21T09:07:31.849Z,3.70
2023-05-21T09:10:03.984Z,5.45
2023-05-21T09:12:32.165Z,7.18
2023-05-21T09:15:00.314Z,5.60
2023-05-21T09:17:27.410Z,9.88
2023-05-21T09:20:16.582Z,3.30
2023-05-21T09:22:48.554Z,5.28
2023-05-21T09:25:17.375Z,7.68
2023-05-21T09:27:44.727Z,4.60
2023-05-21T09:30:14.499Z,4.57
2023-05-21T09:32:42.232Z,5.35
2023-05-21T09:35:16.395Z,4.35
2023-05-21T09:37:45.071Z,5.45
2023-05-21T09:40:16.383Z,3.60
2023-05-21T09:42:47.090Z,4.32
2023-05-21T09:45:25.524Z,3.60
2023-05-21T09:47:54.011Z,5.60
2023-05-21T09:50:21.893Z,4.22
2023-05-21T09:52:50.981Z,4.23
2023-05-21T09:55:17.889Z,4.62
2023-05-21T09:57:50.562Z,4.32
2023-05-21T10:00:20.214Z,3.03
2023-05-21T10:02:48.875Z,4.30
2023-05-21T10:05:17.050Z,3.03
2023-05-21T10:07:51.456Z,3.05
2023-05-21T10:10:22.836Z,3.17
2023-05-21T10:12:58.876Z,3.60
2023-05-21T10:15:28.597Z,4.15
2023-05-21T10:17:56.453Z,3.10
2023-05-21T10:20:24.374Z,4.05
2023-05-21T10:22:51.897Z,4.10
2023-05-21T10:25:19.869Z,3.33
2023-05-21T10:27:48.378Z,5.68
2023-05-21T10:30:17.460Z,5.43
2023-05-21T10:32:46.941Z,6.03
2023-05-21T10:35:18.626Z,4.37
2023-05-21T10:37:46.038Z,6.60
2023-05-21T10:40:13.829Z,3.65
2023-05-21T10:43:15.573Z,4.03
2023-05-21T10:45:54.217Z,6.40
2023-05-21T10:48:27.201Z,3.60
2023-05-21T10:51:03.315Z,6.32
2023-05-21T10:53:42.593Z,5.12
2023-05-21T10:56:28.798Z,5.57
2023-05-21T10:59:29.978Z,4.28
2023-05-21T11:01:57.715Z,4.40
2023-05-21T11:04:28.094Z,4.65
2023-05-21T11:06:56.434Z,5.70
2023-05-21T11:09:23.527Z,4.23
2023-05-21T11:11:58.277Z,4.32
2023-05-21T11:14:39.650Z,3.75
2023-05-21T11:17:06.902Z,5.47
2023-05-21T11:19:47.150Z,3.47
2023-05-21T11:22:20.000Z,4.43
2023-05-21T11:24:48.839Z,6.90
2023-05-21T11:27:41.244Z,5.03
2023-05-21T11:30:10.791Z,5.65
2023-05-21T11:33:01.722Z,4.22
2023-05-21T11:35:28.864Z,3.73
2023-05-21T11:37:55.822Z,3.87
2023-05-21T11:40:27.329Z,3.22
2023-05-21T11:42:56.018Z,3.97
2023-05-21T11:45:28.237Z,3.20
2023-05-21T11:47:56.418Z,4.47
2023-05-21T11:50:23.535Z,4.30
2023-05-21T11:52:51.137Z,5.95
2023-05-21T11:55:26.028Z,3.25
2023-05-21T11:57:54.444Z,3.17
2023-05-21T12:00:21.867Z,3.70
2023-05-21T12:02:52.327Z,3.35
2023-05-21T12:05:19.545Z,2.80
2023-05-21T12:07:49.004Z,3.15
2023-05-21T12:10:16.342Z,5.00
2023-05-21T12:12:54.027Z,2.80
2023-05-21T12:15:22.942Z,2.92
2023-05-21T12:17:52.948Z,5.05
2023-05-21T12:20:20.431Z,3.28
2023-05-21T12:22:49.353Z,6.15
2023-05-21T12:25:20.358Z,6.67
2023-05-21T12:27:49.846Z,2.92
2023-05-21T12:30:16.921Z,4.43
2023-05-21T12:32:44.503Z,3.65
2023-05-21T12:35:21.640Z,4.97
2023-05-21T12:37:50.919Z,3.07
2023-05-21T12:40:18.435Z,3.67
2023-05-21T12:42:45.595Z,3.12
2023-05-21T12:45:13.359Z,3.78
2023-05-21T12:47:40.310Z,3.72
2023-05-21T12:50:14.146Z,5.23
2023-05-21T12:52:43.106Z,6.32
2023-05-21T12:55:15.413Z,6.03
2023-05-21T12:57:44.032Z,4.50
2023-05-21T13:00:12.081Z,5.12
2023-05-21T13:02:41.410Z,4.73
2023-05-21T13:05:11.159Z,5.37
2023-05-21T13:07:39.859Z,4.43
2023-05-21T13:10:07.880Z,5.45
2023-05-21T13:12:36.069Z,6.15
2023-05-21T13:15:04.908Z,3.60
2023-05-21T13:17:32.065Z,4.85
2023-05-21T13:20:15.557Z,6.97
2023-05-21T13:22:52.199Z,3.20
2023-05-21T13:25:29.966Z,4.78
2023-05-21T13:27:58.207Z,4.90
2023-05-21T13:30:25.389Z,3.97
2023-05-21T13:32:52.575Z,3.90
2023-05-21T13:35:20.209Z,4.40
2023-05-21T13:37:47.189Z,5.93
2023-05-21T13:40:15.990Z,3.43
2023-05-21T13:42:45.544Z,3.55
2023-05-21T13:45:14.412Z,5.68
2023-05-21T13:47:42.666Z,6.35
2023-05-21T13:50:09.864Z,4.80
2023-05-21T13:52:37.772Z,3.40
2023-05-21T13:55:05.995Z,5.50
2023-05-21T13:57:33.512Z,6.05
2023-05-21T14:00:01.412Z,6.57
2023-05-21T14:02:28.875Z,4.40
2023-05-21T14:04:55.908Z,6.20
2023-05-21T14:07:22.855Z,6.75
2023-05-21T14:09:49.981Z,4.03
2023-05-21T14:12:17.251Z,3.47
2023-05-21T14:14:44.556Z,5.57
2023-05-21T14:17:11.671Z,4.53
2023-05-21T14:19:38.592Z,5.82
2023-05-21T14:22:05.653Z,4.07
2023-05-21T14:24:32.691Z,4.82
2023-05-21T14:26:59.685Z,3.53
2023-05-21T14:29:26.683Z,5.30
2023-05-21T14:31:53.724Z,5.07
2023-05-21T14:34:20.980Z,5.95
2023-05-21T14:36:47.861Z,4.62
2023-05-21T14:39:14.815Z,4.05
2023-05-21T14:41:41.848Z,5.13
2023-05-21T14:44:09.053Z,6.47
2023-05-21T14:46:36.913Z,3.75
2023-05-21T14:49:04.052Z,5.72
2023-05-21T14:51:31.839Z,4.30
2023-05-21T14:53:59.223Z,4.63
2023-05-21T14:56:27.892Z,7.25
2023-05-21T14:58:55.148Z,5.15
2023-05-21T15:01:22.258Z,3.90
2023-05-21T15:03:52.572Z,5.93
2023-05-21T15:06:19.930Z,4.20
2023-05-21T15:08:46.817Z,4.22
2023-05-21T15:11:13.784Z,7.05
2023-05-21T15:13:40.611Z,4.12
2023-05-21T15:16:08.067Z,3.83
2023-05-21T15:18:35.491Z,4.10
2023-05-21T15:21:02.537Z,4.55
2023-05-21T15:23:29.554Z,5.15
2023-05-21T15:25:56.549Z,4.20
2023-05-21T15:28:23.513Z,3.72
2023-05-21T15:30:50.533Z,4.10
2023-05-21T15:33:17.707Z,2.95
2023-05-21T15:35:45.050Z,4.35
2023-05-21T15:38:12.297Z,3.28
2023-05-21T15:40:41.469Z,4.62
2023-05-21T15:43:08.455Z,4.03
2023-05-21T15:45:35.785Z,5.07
2023-05-21T15:48:03.016Z,4.97
2023-05-21T15:50:30.059Z,6.45
2023-05-21T15:52:57.021Z,3.78
2023-05-21T15:55:24.051Z,4.20
2023-05-21T15:57:51.044Z,4.82
2023-05-21T16:00:18.364Z,5.40
2023-05-21T16:02:45.505Z,5.90
2023-05-21T16:05:12.564Z,6.97
2023-05-21T16:07:39.424Z,3.90
2023-05-21T16:10:11.116Z,5.97
2023-05-21T16:12:38.343Z,5.10
2023-05-21T16:15:06.585Z,4.12
2023-05-21T16:17:33.512Z,4.65
2023-05-21T16:20:00.566Z,5.43
2023-05-21T16:22:27.609Z,3.87
2023-05-21T16:24:54.678Z,4.10
2023-05-21T16:27:21.759Z,3.80
2023-05-21T16:29:48.761Z,5.18
2023-05-21T16:32:16.077Z,4.63
2023-05-21T16:34:43.153Z,3.87
2023-05-21T16:37:10.106Z,6.95
2023-05-21T16:39:37.299Z,4.28
2023-05-21T16:42:04.738Z,3.17
2023-05-21T16:44:32.313Z,4.33
2023-05-21T16:47:00.086Z,2.97
2023-05-21T16:49:27.990Z,5.32
2023-05-21T16:51:55.163Z,4.50
2023-05-21T16:54:22.234Z,3.95
2023-05-21T16:56:49.232Z,4.67
2023-05-21T16:59:16.492Z,4.18
2023-05-21T17:01:43.748Z,4.03
2023-05-21T17:04:11.148Z,8.52
2023-05-21T17:06:38.093Z,5.00
2023-05-21T17:09:05.049Z,5.30
2023-05-21T17:11:32.206Z,6.60
2023-05-21T17:13:59.420Z,7.50
2023-05-21T17:16:26.745Z,7.07
2023-05-21T17:18:53.839Z,5.82
2023-05-21T17:21:20.818Z,4.43
2023-05-21T17:23:47.772Z,4.20
2023-05-21T17:26:15.265Z,5.28
2023-05-21T17:28:43.196Z,4.35
2023-05-21T17:31:10.443Z,5.35
2023-05-21T17:33:38.006Z,3.07
2023-05-21T17:36:05.171Z,4.78
2023-05-21T17:38:32.129Z,3.10
2023-05-21T17:40:59.469Z,5.87
2023-05-21T17:43:31.912Z,4.97
2023-05-21T17:45:59.088Z,4.37
2023-05-21T17:48:26.556Z,5.47
2023-05-21T17:50:53.692Z,5.97
2023-05-21T17:53:20.747Z,4.32
2023-05-21T17:55:47.748Z,4.45
2023-05-21T17:58:14.764Z,4.60
2023-05-21T18:00:41.899Z,5.70
2023-05-21T18:03:09.493Z,7.00
2023-05-21T18:05:37.110Z,5.80
2023-05-21T18:08:04.846Z,5.40
2023-05-21T18:10:31.762Z,4.87
2023-05-21T18:12:59.012Z,4.95
2023-05-21T18:15:26.518Z,3.92
2023-05-21T18:17:53.830Z,6.55
2023-05-21T18:20:21.094Z,6.65
2023-05-21T18:22:48.796Z,7.43
2023-05-21T18:25:16.105Z,4.55
2023-05-21T18:27:43.828Z,4.45
2023-05-21T18:30:12.316Z,5.60
2023-05-21T18:32:40.452Z,4.78
2023-05-21T18:35:11.161Z,7.80
2023-05-21T18:37:42.855Z,5.75
2023-05-21T18:40:12.432Z,5.47
2023-05-21T18:42:40.880Z,7.18
2023-05-21T18:45:11.818Z,5.75
2023-05-21T18:47:40.563Z,5.33
2023-05-21T18:50:14.280Z,6.82
2023-05-21T18:52:42.273Z,5.22
2023-05-21T18:55:10.594Z,9.73
2023-05-21T18:57:39.510Z,8.25
2023-05-21T19:00:09.795Z,10.43
2023-05-21T19:02:38.381Z,10.48
2023-05-21T19:05:07.881Z,11.10
2023-05-21T19:07:36.475Z,9.02
2023-05-21T19:10:05.219Z,13.27
2023-05-21T19:12:35.865Z,5.90
2023-05-21T19:15:04.426Z,6.70
2023-05-21T19:17:35.406Z,5.32
2023-05-21T19:20:05.454Z,7.53
2023-05-21T19:22:37.349Z,6.40
2023-05-21T19:25:06.925Z,7.43
2023-05-21T19:27:35.077Z,6.90
2023-05-21T19:30:04.260Z,5.65
2023-05-21T19:32:32.298Z,5.80
2023-05-21T19:35:00.508Z,6.20
2023-05-21T19:37:28.402Z,6.37
2023-05-21T19:39:56.199Z,8.00
2023-05-21T19:42:26.122Z,9.35
2023-05-21T19:44:56.540Z,6.87
2023-05-21T19:47:24.884Z,7.90
2023-05-21T19:49:52.744Z,8.50
2023-05-21T19:52:20.880Z,6.25
2023-05-21T19:54:49.434Z,8.82
2023-05-21T19:57:17.365Z,4.93
2023-05-21T19:59:45.976Z,9.68
2023-05-21T20:02:17.029Z,11.13
2023-05-21T20:04:45.074Z,9.48
2023-05-21T20:07:13.343Z,7.60
2023-05-21T20:09:41.284Z,8.15
2023-05-21T20:12:09.412Z,7.18
2023-05-21T20:14:36.618Z,7.67
2023-05-21T20:17:05.830Z,9.63
2023-05-21T20:19:33.342Z,11.82
2023-05-21T20:22:00.444Z,6.82
2023-05-21T20:24:27.663Z,9.48
2023-05-21T20:26:55.110Z,7.60
2023-05-21T20:29:22.209Z,9.55
2023-05-21T20:31:49.188Z,4.72
2023-05-21T20:34:17.642Z,6.78
2023-05-21T20:36:44.758Z,4.80
2023-05-21T20:39:12.211Z,8.40
2023-05-21T20:41:39.686Z,5.72
2023-05-21T20:44:06.898Z,9.75
2023-05-21T20:46:38.266Z,12.13
2023-05-21T20:49:06.005Z,5.65
2023-05-21T20:51:33.411Z,5.90
2023-05-21T20:54:00.447Z,5.90
2023-05-21T20:56:40.802Z,6.97
2023-05-21T20:59:11.108Z,5.25
2023-05-21T21:01:39.304Z,8.10
2023-05-21T21:04:06.626Z,6.17
2023-05-21T21:06:34.017Z,5.62
2023-05-21T21:09:01.197Z,6.68
2023-05-21T21:11:28.341Z,6.85
2023-05-21T21:13:55.460Z,7.03
2023-05-21T21:16:22.415Z,7.93
2023-05-21T21:18:49.779Z,8.23
2023-05-21T21:21:16.839Z,5.53
2023-05-21T21:23:43.996Z,9.80
2023-05-21T21:26:11.120Z,7.20
2023-05-21T21:28:38.048Z,6.90
2023-05-21T21:31:04.942Z,8.98
2023-05-21T21:33:32.565Z,4.50
2023-05-21T21:36:00.455Z,7.00
2023-05-21T21:38:27.537Z,7.28
2023-05-21T21:40:54.864Z,6.07
2023-05-21T21:43:21.697Z,7.62
2023-05-21T21:45:48.859Z,6.93
2023-05-21T21:48:16.717Z,6.15
2023-05-21T21:50:43.730Z,7.62
2023-05-21T21:53:12.708Z,8.80
2023-05-21T21:55:39.739Z,8.98
2023-05-21T21:58:07.106Z,5.97
2023-05-21T22:00:34.104Z,6.00
2023-05-21T22:03:01.224Z,5.40
2023-05-21T22:05:30.812Z,6.87
2023-05-21T22:07:57.754Z,6.82
2023-05-21T22:10:24.664Z,5.28
2023-05-21T22:12:51.625Z,11.18
2023-05-21T22:15:28.710Z,6.10
2023-05-21T22:17:55.940Z,6.00
2023-05-21T22:20:23.448Z,6.03
2023-05-21T22:22:50.772Z,6.78
2023-05-21T22:25:18.444Z,6.10
2023-05-21T22:27:45.436Z,6.03
2023-05-21T22:30:12.657Z,5.63
2023-05-21T22:32:40.132Z,5.75
2023-05-21T22:35:07.903Z,7.30
2023-05-21T22:37:34.845Z,10.93
2023-05-21T22:40:01.875Z,6.47
2023-05-21T22:42:28.879Z,9.13
2023-05-21T22:44:56.004Z,6.35
2023-05-21T22:47:23.990Z,6.45
2023-05-21T22:49:53.846Z,6.30
2023-05-21T22:52:24.245Z,7.03
2023-05-21T22:54:55.058Z,6.97
2023-05-21T22:57:22.217Z,5.43
2023-05-21T22:59:49.312Z,5.55
2023-05-21T23:02:16.710Z,7.32
2023-05-21T23:04:44.705Z,5.15
2023-05-21T23:07:12.473Z,6.27
2023-05-21T23:09:39.878Z,5.35
2023-05-21T23:12:07.454Z,6.70
2023-05-21T23:14:34.508Z,4.45
2023-05-21T23:17:02.487Z,5.28
2023-05-21T23:19:30.493Z,8.47
2023-05-21T23:21:58.112Z,4.72
2023-05-21T23:24:25.127Z,5.07
2023-05-21T23:26:52.707Z,5.57
2023-05-21T23:29:20.033Z,5.07
2023-05-21T23:31:47.286Z,6.33
2023-05-21T23:34:14.472Z,6.82
2023-05-21T23:36:41.527Z,5.05
2023-05-21T23:39:09.512Z,6.50
2023-05-21T23:41:36.589Z,5.28
2023-05-21T23:44:03.728Z,6.10
2023-05-21T23:46:30.789Z,7.43
2023-05-21T23:48:57.811Z,6.90
2023-05-21T23:51:24.911Z,4.80
2023-05-21T23:53:52.229Z,5.53
2023-05-21T23:56:19.245Z,5.17
2023-05-21T23:58:46.354Z,5.55
